sensor_id;sensor_type;location;lat;lon;timestamp;temperature;humidity
61398;DHT22;47267;48.130;-2.040;2024-01-06T00:01:48;18.20;57.60
61398;DHT22;47267;48.130;-2.040;2024-01-06T00:04:14;18.20;57.60
61398;DHT22;47267;48.130;-2.040;2024-01-06T00:06:39;18.10;57.50
61398;DHT22;47267;48.130;-2.040;2024-01-06T00:09:05;18.20;57.60
61398;DHT22;47267;48.130;-2.040;2024-01-06T00:11:31;18.10;57.60
61398;DHT22;47267;48.130;-2.040;2024-01-06T00:13:57;18.10;57.60
61398;DHT22;47267;48.130;-2.040;2024-01-06T00:16:22;18.10;57.50
61398;DHT22;47267;48.130;-2.040;2024-01-06T00:18:48;18.10;57.50
61398;DHT22;47267;48.130;-2.040;2024-01-06T00:21:14;18.10;57.60
61398;DHT22;47267;48.130;-2.040;2024-01-06T00:23:40;18.10;57.50
61398;DHT22;47267;48.130;-2.040;2024-01-06T00:26:07;18.10;57.60
61398;DHT22;47267;48.130;-2.040;2024-01-06T00:28:32;18.10;57.50
61398;DHT22;47267;48.130;-2.040;2024-01-06T00:30:58;18.10;57.50
61398;DHT22;47267;48.130;-2.040;2024-01-06T00:33:24;18.10;57.50
61398;DHT22;47267;48.130;-2.040;2024-01-06T00:35:49;18.10;57.50
61398;DHT22;47267;48.130;-2.040;2024-01-06T00:38:15;18.10;57.40
61398;DHT22;47267;48.130;-2.040;2024-01-06T00:40:41;18.10;57.40
61398;DHT22;47267;48.130;-2.040;2024-01-06T00:43:06;18.00;58.00
61398;DHT22;47267;48.130;-2.040;2024-01-06T00:45:32;18.10;57.40
61398;DHT22;47267;48.130;-2.040;2024-01-06T00:47:58;18.10;57.50
61398;DHT22;47267;48.130;-2.040;2024-01-06T00:50:23;18.00;57.30
61398;DHT22;47267;48.130;-2.040;2024-01-06T00:52:49;18.00;57.40
61398;DHT22;47267;48.130;-2.040;2024-01-06T00:55:19;18.00;57.30
61398;DHT22;47267;48.130;-2.040;2024-01-06T00:57:45;18.00;57.30
61398;DHT22;47267;48.130;-2.040;2024-01-06T01:00:11;18.10;57.50
61398;DHT22;47267;48.130;-2.040;2024-01-06T01:02:37;18.00;57.30
61398;DHT22;47267;48.130;-2.040;2024-01-06T01:05:02;18.00;57.40
61398;DHT22;47267;48.130;-2.040;2024-01-06T01:07:28;18.00;57.40
61398;DHT22;47267;48.130;-2.040;2024-01-06T01:09:54;18.00;57.30
61398;DHT22;47267;48.130;-2.040;2024-01-06T01:12:21;18.00;57.40
61398;DHT22;47267;48.130;-2.040;2024-01-06T01:14:47;18.00;57.30
61398;DHT22;47267;48.130;-2.040;2024-01-06T01:17:13;18.00;57.40
61398;DHT22;47267;48.130;-2.040;2024-01-06T01:19:39;18.00;57.30
61398;DHT22;47267;48.130;-2.040;2024-01-06T01:22:05;18.00;57.40
61398;DHT22;47267;48.130;-2.040;2024-01-06T01:24:30;18.00;57.30
61398;DHT22;47267;48.130;-2.040;2024-01-06T01:26:56;18.00;57.30
61398;DHT22;47267;48.130;-2.040;2024-01-06T01:29:21;18.00;57.30
61398;DHT22;47267;48.130;-2.040;2024-01-06T01:31:47;18.00;57.30
61398;DHT22;47267;48.130;-2.040;2024-01-06T01:34:13;18.00;57.40
61398;DHT22;47267;48.130;-2.040;2024-01-06T01:36:39;17.90;57.30
61398;DHT22;47267;48.130;-2.040;2024-01-06T01:39:05;18.00;57.40
61398;DHT22;47267;48.130;-2.040;2024-01-06T01:41:30;17.90;57.30
61398;DHT22;47267;48.130;-2.040;2024-01-06T01:43:56;17.90;57.30
61398;DHT22;47267;48.130;-2.040;2024-01-06T01:46:26;17.90;57.30
61398;DHT22;47267;48.130;-2.040;2024-01-06T01:48:53;17.90;57.30
61398;DHT22;47267;48.130;-2.040;2024-01-06T01:51:20;18.00;57.30
61398;DHT22;47267;48.130;-2.040;2024-01-06T01:53:47;17.90;57.30
61398;DHT22;47267;48.130;-2.040;2024-01-06T01:56:13;17.90;57.30
61398;DHT22;47267;48.130;-2.040;2024-01-06T01:58:39;17.90;57.30
61398;DHT22;47267;48.130;-2.040;2024-01-06T02:01:06;17.90;57.30
61398;DHT22;47267;48.130;-2.040;2024-01-06T02:03:33;17.90;57.30
61398;DHT22;47267;48.130;-2.040;2024-01-06T02:05:58;17.90;57.20
61398;DHT22;47267;48.130;-2.040;2024-01-06T02:08:24;17.90;57.20
61398;DHT22;47267;48.130;-2.040;2024-01-06T02:10:50;17.90;57.20
61398;DHT22;47267;48.130;-2.040;2024-01-06T02:13:16;17.90;57.20
61398;DHT22;47267;48.130;-2.040;2024-01-06T02:15:41;17.90;57.20
61398;DHT22;47267;48.130;-2.040;2024-01-06T02:18:07;17.90;57.10
61398;DHT22;47267;48.130;-2.040;2024-01-06T02:20:33;17.90;57.10
61398;DHT22;47267;48.130;-2.040;2024-01-06T02:22:59;17.90;57.10
61398;DHT22;47267;48.130;-2.040;2024-01-06T02:25:26;17.90;57.10
61398;DHT22;47267;48.130;-2.040;2024-01-06T02:27:51;17.90;57.10
61398;DHT22;47267;48.130;-2.040;2024-01-06T02:30:17;17.90;57.10
61398;DHT22;47267;48.130;-2.040;2024-01-06T02:32:43;17.90;57.20
61398;DHT22;47267;48.130;-2.040;2024-01-06T02:35:08;17.80;57.10
61398;DHT22;47267;48.130;-2.040;2024-01-06T02:37:34;17.80;57.10
61398;DHT22;47267;48.130;-2.040;2024-01-06T02:40:00;17.80;57.00
61398;DHT22;47267;48.130;-2.040;2024-01-06T02:42:25;17.90;57.10
61398;DHT22;47267;48.130;-2.040;2024-01-06T02:44:51;17.90;57.10
61398;DHT22;47267;48.130;-2.040;2024-01-06T02:47:17;17.90;57.10
61398;DHT22;47267;48.130;-2.040;2024-01-06T02:49:43;17.80;57.60
61398;DHT22;47267;48.130;-2.040;2024-01-06T02:52:08;17.80;57.00
61398;DHT22;47267;48.130;-2.040;2024-01-06T02:54:34;17.80;57.00
61398;DHT22;47267;48.130;-2.040;2024-01-06T02:57:00;17.90;57.00
61398;DHT22;47267;48.130;-2.040;2024-01-06T02:59:25;17.90;57.00
61398;DHT22;47267;48.130;-2.040;2024-01-06T03:01:51;17.80;57.00
61398;DHT22;47267;48.130;-2.040;2024-01-06T03:04:17;17.90;56.90
61398;DHT22;47267;48.130;-2.040;2024-01-06T03:06:43;17.80;56.80
61398;DHT22;47267;48.130;-2.040;2024-01-06T03:09:08;17.80;56.80
61398;DHT22;47267;48.130;-2.040;2024-01-06T03:11:34;17.80;56.80
61398;DHT22;47267;48.130;-2.040;2024-01-06T03:14:00;17.80;56.80
61398;DHT22;47267;48.130;-2.040;2024-01-06T03:16:26;17.80;56.70
61398;DHT22;47267;48.130;-2.040;2024-01-06T03:18:51;17.80;56.80
61398;DHT22;47267;48.130;-2.040;2024-01-06T03:21:18;17.80;56.70
61398;DHT22;47267;48.130;-2.040;2024-01-06T03:23:44;17.80;56.70
61398;DHT22;47267;48.130;-2.040;2024-01-06T03:26:10;17.80;57.30
61398;DHT22;47267;48.130;-2.040;2024-01-06T03:28:38;17.80;56.70
61398;DHT22;47267;48.130;-2.040;2024-01-06T03:31:05;17.80;56.70
61398;DHT22;47267;48.130;-2.040;2024-01-06T03:33:30;17.80;56.70
61398;DHT22;47267;48.130;-2.040;2024-01-06T03:35:56;17.80;56.70
61398;DHT22;47267;48.130;-2.040;2024-01-06T03:38:22;17.80;56.70
61398;DHT22;47267;48.130;-2.040;2024-01-06T03:40:47;17.80;56.70
61398;DHT22;47267;48.130;-2.040;2024-01-06T03:43:13;17.80;56.70
61398;DHT22;47267;48.130;-2.040;2024-01-06T03:45:38;17.80;56.70
61398;DHT22;47267;48.130;-2.040;2024-01-06T03:48:04;17.80;56.70
61398;DHT22;47267;48.130;-2.040;2024-01-06T03:50:30;17.80;56.60
61398;DHT22;47267;48.130;-2.040;2024-01-06T03:52:56;17.80;56.70
61398;DHT22;47267;48.130;-2.040;2024-01-06T03:55:22;17.80;56.60
61398;DHT22;47267;48.130;-2.040;2024-01-06T03:57:48;17.80;56.70
61398;DHT22;47267;48.130;-2.040;2024-01-06T04:00:14;17.80;56.70
61398;DHT22;47267;48.130;-2.040;2024-01-06T04:02:39;17.80;56.60
61398;DHT22;47267;48.130;-2.040;2024-01-06T04:05:05;17.80;56.60
61398;DHT22;47267;48.130;-2.040;2024-01-06T04:07:32;17.80;56.60
61398;DHT22;47267;48.130;-2.040;2024-01-06T04:09:59;17.80;56.60
61398;DHT22;47267;48.130;-2.040;2024-01-06T04:12:24;17.80;56.60
61398;DHT22;47267;48.130;-2.040;2024-01-06T04:14:50;17.80;56.70
61398;DHT22;47267;48.130;-2.040;2024-01-06T04:17:16;17.80;56.60
61398;DHT22;47267;48.130;-2.040;2024-01-06T04:19:42;17.80;56.60
61398;DHT22;47267;48.130;-2.040;2024-01-06T04:22:07;17.80;56.60
61398;DHT22;47267;48.130;-2.040;2024-01-06T04:24:33;17.80;56.60
61398;DHT22;47267;48.130;-2.040;2024-01-06T04:27:03;17.80;56.60
61398;DHT22;47267;48.130;-2.040;2024-01-06T04:29:30;17.80;56.60
61398;DHT22;47267;48.130;-2.040;2024-01-06T04:31:55;17.80;56.60
61398;DHT22;47267;48.130;-2.040;2024-01-06T04:34:21;17.80;56.60
61398;DHT22;47267;48.130;-2.040;2024-01-06T04:36:46;17.80;56.50
61398;DHT22;47267;48.130;-2.040;2024-01-06T04:39:13;17.80;56.60
61398;DHT22;47267;48.130;-2.040;2024-01-06T04:41:40;17.80;56.50
61398;DHT22;47267;48.130;-2.040;2024-01-06T04:44:05;17.80;56.50
61398;DHT22;47267;48.130;-2.040;2024-01-06T04:46:31;17.80;56.50
61398;DHT22;47267;48.130;-2.040;2024-01-06T04:48:57;17.80;56.50
61398;DHT22;47267;48.130;-2.040;2024-01-06T04:51:23;17.80;56.50
61398;DHT22;47267;48.130;-2.040;2024-01-06T04:53:48;17.80;56.50
61398;DHT22;47267;48.130;-2.040;2024-01-06T04:56:14;17.80;56.40
61398;DHT22;47267;48.130;-2.040;2024-01-06T04:58:40;17.80;56.50
61398;DHT22;47267;48.130;-2.040;2024-01-06T05:01:06;17.80;56.30
61398;DHT22;47267;48.130;-2.040;2024-01-06T05:03:31;17.80;56.40
61398;DHT22;47267;48.130;-2.040;2024-01-06T05:05:57;17.80;56.50
61398;DHT22;47267;48.130;-2.040;2024-01-06T05:08:23;17.80;56.40
61398;DHT22;47267;48.130;-2.040;2024-01-06T05:10:51;17.80;56.40
61398;DHT22;47267;48.130;-2.040;2024-01-06T05:13:17;17.80;56.30
61398;DHT22;47267;48.130;-2.040;2024-01-06T05:15:43;17.90;56.40
61398;DHT22;47267;48.130;-2.040;2024-01-06T05:18:09;17.90;56.30
61398;DHT22;47267;48.130;-2.040;2024-01-06T05:20:34;17.90;56.30
61398;DHT22;47267;48.130;-2.040;2024-01-06T05:23:00;17.90;56.30
61398;DHT22;47267;48.130;-2.040;2024-01-06T05:25:26;17.90;56.30
61398;DHT22;47267;48.130;-2.040;2024-01-06T05:27:51;17.90;56.30
61398;DHT22;47267;48.130;-2.040;2024-01-06T05:30:17;17.90;56.20
61398;DHT22;47267;48.130;-2.040;2024-01-06T05:32:43;17.90;56.20
61398;DHT22;47267;48.130;-2.040;2024-01-06T05:35:09;17.90;56.20
61398;DHT22;47267;48.130;-2.040;2024-01-06T05:37:35;17.90;56.20
61398;DHT22;47267;48.130;-2.040;2024-01-06T05:40:00;17.90;56.20
61398;DHT22;47267;48.130;-2.040;2024-01-06T05:42:29;17.90;56.20
61398;DHT22;47267;48.130;-2.040;2024-01-06T05:44:54;17.90;56.20
61398;DHT22;47267;48.130;-2.040;2024-01-06T05:47:20;17.90;56.20
61398;DHT22;47267;48.130;-2.040;2024-01-06T05:49:46;17.90;56.20
61398;DHT22;47267;48.130;-2.040;2024-01-06T05:52:12;17.90;56.20
61398;DHT22;47267;48.130;-2.040;2024-01-06T05:54:41;17.90;56.20
61398;DHT22;47267;48.130;-2.040;2024-01-06T05:57:08;17.90;56.20
61398;DHT22;47267;48.130;-2.040;2024-01-06T05:59:34;17.90;56.20
61398;DHT22;47267;48.130;-2.040;2024-01-06T06:01:59;17.90;56.20
61398;DHT22;47267;48.130;-2.040;2024-01-06T06:04:25;17.90;56.20
61398;DHT22;47267;48.130;-2.040;2024-01-06T06:06:51;17.90;56.20
61398;DHT22;47267;48.130;-2.040;2024-01-06T06:09:17;17.90;56.20
61398;DHT22;47267;48.130;-2.040;2024-01-06T06:11:42;17.90;56.20
61398;DHT22;47267;48.130;-2.040;2024-01-06T06:14:09;17.90;56.20
61398;DHT22;47267;48.130;-2.040;2024-01-06T06:16:34;17.90;56.20
61398;DHT22;47267;48.130;-2.040;2024-01-06T06:19:00;18.00;56.20
61398;DHT22;47267;48.130;-2.040;2024-01-06T06:21:26;17.90;56.10
61398;DHT22;47267;48.130;-2.040;2024-01-06T06:23:52;17.90;56.10
61398;DHT22;47267;48.130;-2.040;2024-01-06T06:26:17;17.90;56.10
61398;DHT22;47267;48.130;-2.040;2024-01-06T06:28:43;17.90;56.00
61398;DHT22;47267;48.130;-2.040;2024-01-06T06:31:09;17.90;56.00
61398;DHT22;47267;48.130;-2.040;2024-01-06T06:33:34;17.90;56.10
61398;DHT22;47267;48.130;-2.040;2024-01-06T06:36:00;17.90;56.00
61398;DHT22;47267;48.130;-2.040;2024-01-06T06:38:27;18.00;56.00
61398;DHT22;47267;48.130;-2.040;2024-01-06T06:40:53;17.90;56.10
61398;DHT22;47267;48.130;-2.040;2024-01-06T06:43:18;17.90;56.10
61398;DHT22;47267;48.130;-2.040;2024-01-06T06:45:44;18.00;56.10
61398;DHT22;47267;48.130;-2.040;2024-01-06T06:48:10;18.00;56.10
61398;DHT22;47267;48.130;-2.040;2024-01-06T06:50:36;18.00;56.10
61398;DHT22;47267;48.130;-2.040;2024-01-06T06:53:02;18.00;56.00
61398;DHT22;47267;48.130;-2.040;2024-01-06T06:55:28;18.00;56.10
61398;DHT22;47267;48.130;-2.040;2024-01-06T06:57:54;17.90;56.00
61398;DHT22;47267;48.130;-2.040;2024-01-06T07:00:20;17.90;56.00
61398;DHT22;47267;48.130;-2.040;2024-01-06T07:02:46;18.00;56.00
61398;DHT22;47267;48.130;-2.040;2024-01-06T07:05:12;17.90;56.00
61398;DHT22;47267;48.130;-2.040;2024-01-06T07:07:37;17.90;56.10
61398;DHT22;47267;48.130;-2.040;2024-01-06T07:10:06;17.90;56.20
61398;DHT22;47267;48.130;-2.040;2024-01-06T07:12:32;18.00;56.50
61398;DHT22;47267;48.130;-2.040;2024-01-06T07:14:58;18.00;56.40
61398;DHT22;47267;48.130;-2.040;2024-01-06T07:17:24;17.90;56.50
61398;DHT22;47267;48.130;-2.040;2024-01-06T07:19:50;17.90;56.50
61398;DHT22;47267;48.130;-2.040;2024-01-06T07:22:16;18.00;56.60
61398;DHT22;47267;48.130;-2.040;2024-01-06T07:24:43;17.90;56.50
61398;DHT22;47267;48.130;-2.040;2024-01-06T07:27:09;18.00;56.60
61398;DHT22;47267;48.130;-2.040;2024-01-06T07:29:35;18.00;56.60
61398;DHT22;47267;48.130;-2.040;2024-01-06T07:32:01;17.90;56.50
61398;DHT22;47267;48.130;-2.040;2024-01-06T07:34:26;17.90;56.60
61398;DHT22;47267;48.130;-2.040;2024-01-06T07:36:52;17.90;56.70
61398;DHT22;47267;48.130;-2.040;2024-01-06T07:39:18;17.90;56.60
61398;DHT22;47267;48.130;-2.040;2024-01-06T07:41:44;17.90;56.60
61398;DHT22;47267;48.130;-2.040;2024-01-06T07:44:12;17.90;56.60
61398;DHT22;47267;48.130;-2.040;2024-01-06T07:46:39;17.90;56.60
61398;DHT22;47267;48.130;-2.040;2024-01-06T07:49:06;17.90;56.60
61398;DHT22;47267;48.130;-2.040;2024-01-06T07:51:32;17.90;56.50
61398;DHT22;47267;48.130;-2.040;2024-01-06T07:53:59;17.90;56.50
61398;DHT22;47267;48.130;-2.040;2024-01-06T07:56:25;17.90;56.60
61398;DHT22;47267;48.130;-2.040;2024-01-06T07:58:51;17.90;56.50
61398;DHT22;47267;48.130;-2.040;2024-01-06T08:01:18;17.90;56.50
61398;DHT22;47267;48.130;-2.040;2024-01-06T08:03:43;17.90;56.50
61398;DHT22;47267;48.130;-2.040;2024-01-06T08:06:10;17.90;56.50
61398;DHT22;47267;48.130;-2.040;2024-01-06T08:08:36;18.00;56.50
61398;DHT22;47267;48.130;-2.040;2024-01-06T08:11:01;17.90;56.40
61398;DHT22;47267;48.130;-2.040;2024-01-06T08:13:27;17.90;56.50
61398;DHT22;47267;48.130;-2.040;2024-01-06T08:15:53;17.90;56.50
61398;DHT22;47267;48.130;-2.040;2024-01-06T08:18:18;17.90;56.40
61398;DHT22;47267;48.130;-2.040;2024-01-06T08:20:44;18.00;56.50
61398;DHT22;47267;48.130;-2.040;2024-01-06T08:23:10;17.90;56.50
61398;DHT22;47267;48.130;-2.040;2024-01-06T08:25:36;17.90;56.50
61398;DHT22;47267;48.130;-2.040;2024-01-06T08:28:02;17.90;56.50
61398;DHT22;47267;48.130;-2.040;2024-01-06T08:30:28;17.90;56.60
61398;DHT22;47267;48.130;-2.040;2024-01-06T08:32:54;18.00;56.60
61398;DHT22;47267;48.130;-2.040;2024-01-06T08:35:19;17.90;56.70
61398;DHT22;47267;48.130;-2.040;2024-01-06T08:37:45;17.90;56.70
61398;DHT22;47267;48.130;-2.040;2024-01-06T08:40:11;17.90;56.80
61398;DHT22;47267;48.130;-2.040;2024-01-06T08:42:37;17.90;56.80
61398;DHT22;47267;48.130;-2.040;2024-01-06T08:45:04;17.90;56.90
61398;DHT22;47267;48.130;-2.040;2024-01-06T08:47:30;17.90;57.00
61398;DHT22;47267;48.130;-2.040;2024-01-06T08:49:56;17.90;57.00
61398;DHT22;47267;48.130;-2.040;2024-01-06T08:52:22;17.90;57.00
61398;DHT22;47267;48.130;-2.040;2024-01-06T08:54:47;17.90;57.10
61398;DHT22;47267;48.130;-2.040;2024-01-06T08:57:15;17.90;57.10
61398;DHT22;47267;48.130;-2.040;2024-01-06T08:59:40;18.00;57.10
61398;DHT22;47267;48.130;-2.040;2024-01-06T09:02:06;18.00;57.10
61398;DHT22;47267;48.130;-2.040;2024-01-06T09:04:32;18.00;57.10
61398;DHT22;47267;48.130;-2.040;2024-01-06T09:06:57;18.00;57.10
61398;DHT22;47267;48.130;-2.040;2024-01-06T09:09:23;18.00;57.10
61398;DHT22;47267;48.130;-2.040;2024-01-06T09:11:49;18.00;57.10
61398;DHT22;47267;48.130;-2.040;2024-01-06T09:14:17;18.00;57.10
61398;DHT22;47267;48.130;-2.040;2024-01-06T09:16:42;18.00;57.50
61398;DHT22;47267;48.130;-2.040;2024-01-06T09:19:08;18.00;57.60
61398;DHT22;47267;48.130;-2.040;2024-01-06T09:21:34;18.10;57.60
61398;DHT22;47267;48.130;-2.040;2024-01-06T09:23:59;18.10;57.70
61398;DHT22;47267;48.130;-2.040;2024-01-06T09:26:31;18.10;58.00
61398;DHT22;47267;48.130;-2.040;2024-01-06T09:29:00;18.20;58.00
61398;DHT22;47267;48.130;-2.040;2024-01-06T09:31:25;18.40;58.10
61398;DHT22;47267;48.130;-2.040;2024-01-06T09:33:51;18.70;57.50
61398;DHT22;47267;48.130;-2.040;2024-01-06T09:36:17;18.80;57.00
61398;DHT22;47267;48.130;-2.040;2024-01-06T09:38:44;18.90;56.60
61398;DHT22;47267;48.130;-2.040;2024-01-06T09:41:09;19.00;56.20
61398;DHT22;47267;48.130;-2.040;2024-01-06T09:43:35;18.80;56.30
61398;DHT22;47267;48.130;-2.040;2024-01-06T09:46:25;18.60;56.60
61398;DHT22;47267;48.130;-2.040;2024-01-06T09:48:57;18.50;56.80
61398;DHT22;47267;48.130;-2.040;2024-01-06T09:51:24;18.50;56.80
61398;DHT22;47267;48.130;-2.040;2024-01-06T09:54:00;18.50;56.80
61398;DHT22;47267;48.130;-2.040;2024-01-06T09:56:28;18.50;56.90
61398;DHT22;47267;48.130;-2.040;2024-01-06T09:58:55;18.50;56.70
61398;DHT22;47267;48.130;-2.040;2024-01-06T10:01:21;18.50;56.70
61398;DHT22;47267;48.130;-2.040;2024-01-06T10:03:46;18.50;56.60
61398;DHT22;47267;48.130;-2.040;2024-01-06T10:06:15;18.50;56.50
61398;DHT22;47267;48.130;-2.040;2024-01-06T10:08:48;18.50;56.50
61398;DHT22;47267;48.130;-2.040;2024-01-06T10:11:15;18.50;56.40
61398;DHT22;47267;48.130;-2.040;2024-01-06T10:13:41;18.60;56.30
61398;DHT22;47267;48.130;-2.040;2024-01-06T10:16:07;18.60;56.20
61398;DHT22;47267;48.130;-2.040;2024-01-06T10:18:34;18.60;56.30
61398;DHT22;47267;48.130;-2.040;2024-01-06T10:21:04;18.60;56.30
61398;DHT22;47267;48.130;-2.040;2024-01-06T10:23:31;18.60;56.50
61398;DHT22;47267;48.130;-2.040;2024-01-06T10:25:57;18.60;56.50
61398;DHT22;47267;48.130;-2.040;2024-01-06T10:28:23;18.70;56.70
61398;DHT22;47267;48.130;-2.040;2024-01-06T10:30:53;18.70;57.00
61398;DHT22;47267;48.130;-2.040;2024-01-06T10:33:20;18.80;57.00
61398;DHT22;47267;48.130;-2.040;2024-01-06T10:35:47;18.80;57.10
61398;DHT22;47267;48.130;-2.040;2024-01-06T10:38:14;18.80;57.10
61398;DHT22;47267;48.130;-2.040;2024-01-06T10:40:59;18.90;56.70
61398;DHT22;47267;48.130;-2.040;2024-01-06T10:43:28;18.80;56.90
61398;DHT22;47267;48.130;-2.040;2024-01-06T10:46:01;18.80;57.00
61398;DHT22;47267;48.130;-2.040;2024-01-06T10:48:31;18.90;57.20
61398;DHT22;47267;48.130;-2.040;2024-01-06T10:51:00;18.90;57.40
61398;DHT22;47267;48.130;-2.040;2024-01-06T10:53:27;19.00;57.60
61398;DHT22;47267;48.130;-2.040;2024-01-06T10:55:53;19.00;57.40
61398;DHT22;47267;48.130;-2.040;2024-01-06T10:58:19;19.00;57.40
61398;DHT22;47267;48.130;-2.040;2024-01-06T11:00:46;19.00;57.60
61398;DHT22;47267;48.130;-2.040;2024-01-06T11:03:13;19.00;57.50
61398;DHT22;47267;48.130;-2.040;2024-01-06T11:05:41;19.00;57.50
61398;DHT22;47267;48.130;-2.040;2024-01-06T11:08:08;19.10;57.70
61398;DHT22;47267;48.130;-2.040;2024-01-06T11:10:34;19.10;57.70
61398;DHT22;47267;48.130;-2.040;2024-01-06T11:13:13;19.10;57.60
61398;DHT22;47267;48.130;-2.040;2024-01-06T11:15:49;19.10;57.70
61398;DHT22;47267;48.130;-2.040;2024-01-06T11:18:36;19.10;57.70
61398;DHT22;47267;48.130;-2.040;2024-01-06T11:23:39;19.20;58.00
61398;DHT22;47267;48.130;-2.040;2024-01-06T11:26:09;19.20;57.80
61398;DHT22;47267;48.130;-2.040;2024-01-06T11:28:47;19.20;58.00
61398;DHT22;47267;48.130;-2.040;2024-01-06T11:31:13;19.20;57.80
61398;DHT22;47267;48.130;-2.040;2024-01-06T11:33:43;19.20;57.40
61398;DHT22;47267;48.130;-2.040;2024-01-06T11:36:10;19.20;57.70
61398;DHT22;47267;48.130;-2.040;2024-01-06T11:38:39;19.20;57.20
61398;DHT22;47267;48.130;-2.040;2024-01-06T11:41:08;19.20;57.20
61398;DHT22;47267;48.130;-2.040;2024-01-06T11:43:38;19.20;57.40
61398;DHT22;47267;48.130;-2.040;2024-01-06T11:46:06;19.20;57.30
61398;DHT22;47267;48.130;-2.040;2024-01-06T11:48:33;19.20;57.50
61398;DHT22;47267;48.130;-2.040;2024-01-06T11:50:59;19.20;57.50
61398;DHT22;47267;48.130;-2.040;2024-01-06T11:53:28;19.20;57.50
61398;DHT22;47267;48.130;-2.040;2024-01-06T11:55:55;19.20;57.60
61398;DHT22;47267;48.130;-2.040;2024-01-06T11:58:20;19.20;57.60
61398;DHT22;47267;48.130;-2.040;2024-01-06T12:00:55;19.20;57.50
61398;DHT22;47267;48.130;-2.040;2024-01-06T12:03:22;19.20;57.40
61398;DHT22;47267;48.130;-2.040;2024-01-06T12:06:01;19.20;57.40
61398;DHT22;47267;48.130;-2.040;2024-01-06T12:08:28;19.20;57.30
61398;DHT22;47267;48.130;-2.040;2024-01-06T12:11:04;19.20;57.30
61398;DHT22;47267;48.130;-2.040;2024-01-06T12:13:31;19.20;57.30
61398;DHT22;47267;48.130;-2.040;2024-01-06T12:15:57;19.20;57.40
61398;DHT22;47267;48.130;-2.040;2024-01-06T12:18:23;19.30;57.30
61398;DHT22;47267;48.130;-2.040;2024-01-06T12:20:50;19.20;57.20
61398;DHT22;47267;48.130;-2.040;2024-01-06T12:23:27;19.30;57.30
61398;DHT22;47267;48.130;-2.040;2024-01-06T12:25:54;19.30;57.20
61398;DHT22;47267;48.130;-2.040;2024-01-06T12:28:20;19.30;57.20
61398;DHT22;47267;48.130;-2.040;2024-01-06T12:30:46;19.30;57.20
61398;DHT22;47267;48.130;-2.040;2024-01-06T12:33:12;19.30;57.20
61398;DHT22;47267;48.130;-2.040;2024-01-06T12:35:37;19.40;57.40
61398;DHT22;47267;48.130;-2.040;2024-01-06T12:38:04;19.40;57.60
61398;DHT22;47267;48.130;-2.040;2024-01-06T12:40:32;19.40;57.60
61398;DHT22;47267;48.130;-2.040;2024-01-06T12:42:58;19.40;57.80
61398;DHT22;47267;48.130;-2.040;2024-01-06T12:45:24;19.40;58.00
61398;DHT22;47267;48.130;-2.040;2024-01-06T12:47:49;19.40;58.10
61398;DHT22;47267;48.130;-2.040;2024-01-06T12:50:17;19.40;58.20
61398;DHT22;47267;48.130;-2.040;2024-01-06T12:52:43;19.50;58.30
61398;DHT22;47267;48.130;-2.040;2024-01-06T12:55:09;19.50;58.40
61398;DHT22;47267;48.130;-2.040;2024-01-06T12:57:35;19.40;58.50
61398;DHT22;47267;48.130;-2.040;2024-01-06T13:00:01;19.40;58.60
61398;DHT22;47267;48.130;-2.040;2024-01-06T13:02:27;19.50;58.70
61398;DHT22;47267;48.130;-2.040;2024-01-06T13:04:53;19.50;58.60
61398;DHT22;47267;48.130;-2.040;2024-01-06T13:07:18;19.50;58.50
61398;DHT22;47267;48.130;-2.040;2024-01-06T13:09:44;19.50;58.60
61398;DHT22;47267;48.130;-2.040;2024-01-06T13:12:10;19.50;58.60
61398;DHT22;47267;48.130;-2.040;2024-01-06T13:14:35;19.50;58.50
61398;DHT22;47267;48.130;-2.040;2024-01-06T13:17:01;19.50;58.60
61398;DHT22;47267;48.130;-2.040;2024-01-06T13:19:27;19.50;58.60
61398;DHT22;47267;48.130;-2.040;2024-01-06T13:21:53;19.50;58.50
61398;DHT22;47267;48.130;-2.040;2024-01-06T13:24:19;19.50;58.50
61398;DHT22;47267;48.130;-2.040;2024-01-06T13:26:45;19.50;58.50
61398;DHT22;47267;48.130;-2.040;2024-01-06T13:29:10;19.50;58.50
61398;DHT22;47267;48.130;-2.040;2024-01-06T13:31:36;19.50;58.50
61398;DHT22;47267;48.130;-2.040;2024-01-06T13:34:02;19.50;58.40
61398;DHT22;47267;48.130;-2.040;2024-01-06T13:36:28;19.50;58.50
61398;DHT22;47267;48.130;-2.040;2024-01-06T13:38:53;19.50;58.40
61398;DHT22;47267;48.130;-2.040;2024-01-06T13:41:19;19.50;58.40
61398;DHT22;47267;48.130;-2.040;2024-01-06T13:43:45;19.50;58.30
61398;DHT22;47267;48.130;-2.040;2024-01-06T13:46:11;19.50;58.20
61398;DHT22;47267;48.130;-2.040;2024-01-06T13:48:39;19.50;58.20
61398;DHT22;47267;48.130;-2.040;2024-01-06T13:51:06;19.50;58.20
61398;DHT22;47267;48.130;-2.040;2024-01-06T13:53:32;19.50;58.20
61398;DHT22;47267;48.130;-2.040;2024-01-06T13:55:58;19.60;58.20
61398;DHT22;47267;48.130;-2.040;2024-01-06T13:58:24;19.60;58.30
61398;DHT22;47267;48.130;-2.040;2024-01-06T14:00:50;19.60;58.30
61398;DHT22;47267;48.130;-2.040;2024-01-06T14:03:15;19.50;58.30
61398;DHT22;47267;48.130;-2.040;2024-01-06T14:05:41;19.60;58.40
61398;DHT22;47267;48.130;-2.040;2024-01-06T14:08:07;19.60;58.30
61398;DHT22;47267;48.130;-2.040;2024-01-06T14:10:32;19.60;58.30
61398;DHT22;47267;48.130;-2.040;2024-01-06T14:12:58;19.60;58.20
61398;DHT22;47267;48.130;-2.040;2024-01-06T14:15:24;19.60;58.20
61398;DHT22;47267;48.130;-2.040;2024-01-06T14:17:51;19.60;58.20
61398;DHT22;47267;48.130;-2.040;2024-01-06T14:20:18;19.50;58.10
61398;DHT22;47267;48.130;-2.040;2024-01-06T14:22:47;19.50;58.10
61398;DHT22;47267;48.130;-2.040;2024-01-06T14:25:14;19.60;58.30
61398;DHT22;47267;48.130;-2.040;2024-01-06T14:27:40;19.60;58.00
61398;DHT22;47267;48.130;-2.040;2024-01-06T14:30:06;19.60;57.90
61398;DHT22;47267;48.130;-2.040;2024-01-06T14:32:36;19.60;57.80
61398;DHT22;47267;48.130;-2.040;2024-01-06T14:35:05;19.70;57.70
61398;DHT22;47267;48.130;-2.040;2024-01-06T14:37:39;19.70;57.60
61398;DHT22;47267;48.130;-2.040;2024-01-06T14:40:07;19.70;57.60
61398;DHT22;47267;48.130;-2.040;2024-01-06T14:42:33;19.80;57.50
61398;DHT22;47267;48.130;-2.040;2024-01-06T14:44:59;19.80;57.40
61398;DHT22;47267;48.130;-2.040;2024-01-06T14:47:25;19.80;57.40
61398;DHT22;47267;48.130;-2.040;2024-01-06T14:49:53;19.70;57.20
61398;DHT22;47267;48.130;-2.040;2024-01-06T14:52:19;19.70;57.20
61398;DHT22;47267;48.130;-2.040;2024-01-06T14:54:45;19.80;57.30
61398;DHT22;47267;48.130;-2.040;2024-01-06T14:57:11;19.90;57.10
61398;DHT22;47267;48.130;-2.040;2024-01-06T14:59:37;20.00;57.10
61398;DHT22;47267;48.130;-2.040;2024-01-06T15:02:03;20.10;56.90
61398;DHT22;47267;48.130;-2.040;2024-01-06T15:04:29;20.20;56.70
61398;DHT22;47267;48.130;-2.040;2024-01-06T15:06:55;20.30;56.60
61398;DHT22;47267;48.130;-2.040;2024-01-06T15:09:21;20.40;56.30
61398;DHT22;47267;48.130;-2.040;2024-01-06T15:11:48;20.60;56.20
61398;DHT22;47267;48.130;-2.040;2024-01-06T15:14:14;20.70;55.90